Time;durP1;ratioP1;P1;durP2;ratioP2;P2;SDS_P1;SDS_P2;PMS_P1;PMS_P2;Temp;Humidity;BMP_temperature;BMP_pressure;BME280_temperature;BME280_humidity;BME280_pressure;Samples;Min_cycle;Max_cycle;Signal;HPM_P1;HPM_P2
2023/10/14 00:00:47;;;;;;;0.55;0.20;;;;;;;;;;5138378;27;20106;-80
2023/10/14 00:03:32;;;;;;;1.02;0.10;;;;;;;;;;5156479;27;20038;-80
2023/10/14 00:06:00;;;;;;;1.42;0.10;;;;;;;;;;5139057;27;20086;-80
2023/10/14 00:08:31;;;;;;;1.98;0.10;;;;;;;;;;5121910;27;20066;-80
2023/10/14 00:11:00;;;;;;;0.45;0.08;;;;;;;;;;5138339;27;20047;-81
2023/10/14 00:13:30;;;;;;;1.80;0.20;;;;;;;;;;5121164;27;20175;-81
2023/10/14 00:16:01;;;;;;;1.60;0.10;;;;;;;;;;5138381;27;20049;-80
2023/10/14 00:18:27;;;;;;;2.17;0.10;;;;;;;;;;5138444;27;20051;-81
2023/10/14 00:20:54;;;;;;;0.50;0.10;;;;;;;;;;5138217;27;20125;-81
2023/10/14 00:23:24;;;;;;;1.58;0.10;;;;;;;;;;5120881;27;20042;-82
2023/10/14 00:25:50;;;;;;;1.05;0.15;;;;;;;;;;5137746;27;20151;-82
2023/10/14 00:28:19;;;;;;;1.17;0.20;;;;;;;;;;5137622;27;20045;-83
2023/10/14 00:30:46;;;;;;;1.38;0.10;;;;;;;;;;5138083;27;20382;-82
2023/10/14 00:33:12;;;;;;;2.58;0.15;;;;;;;;;;5120582;27;20491;-82
2023/10/14 00:35:41;;;;;;;2.45;0.20;;;;;;;;;;5137963;27;20050;-81
2023/10/14 00:38:13;;;;;;;0.80;0.13;;;;;;;;;;5137525;27;20092;-81
2023/10/14 00:40:41;;;;;;;1.92;0.17;;;;;;;;;;5121692;27;20050;-80
2023/10/14 00:43:07;;;;;;;0.93;0.28;;;;;;;;;;5137442;27;20080;-80
2023/10/14 00:45:42;;;;;;;2.67;0.10;;;;;;;;;;5137964;27;20115;-81
2023/10/14 00:48:08;;;;;;;2.08;0.20;;;;;;;;;;5137734;27;20443;-82
2023/10/14 00:50:35;;;;;;;1.38;0.10;;;;;;;;;;5156043;27;20043;-82
2023/10/14 00:53:05;;;;;;;2.10;0.20;;;;;;;;;;5120844;27;20125;-82
2023/10/14 00:56:18;;;;;;;1.85;0.20;;;;;;;;;;5137607;27;20047;-83
2023/10/14 00:58:28;;;;;;;3.30;0.20;;;;;;;;;;5125805;27;20123;-82
2023/10/14 01:00:57;;;;;;;1.15;0.20;;;;;;;;;;5120170;27;20086;-82
2023/10/14 01:03:27;;;;;;;8.45;0.30;;;;;;;;;;5137208;27;20074;-82
2023/10/14 01:05:54;;;;;;;4.60;0.60;;;;;;;;;;5120528;27;20050;-82
2023/10/14 01:08:22;;;;;;;3.00;0.20;;;;;;;;;;5137354;27;20047;-82
2023/10/14 01:10:49;;;;;;;6.00;0.40;;;;;;;;;;5137211;27;20050;-81
2023/10/14 01:13:17;;;;;;;5.53;0.32;;;;;;;;;;5136627;27;20055;-83
2023/10/14 01:15:47;;;;;;;4.32;0.40;;;;;;;;;;5120231;27;20058;-82
2023/10/14 01:18:14;;;;;;;5.95;0.60;;;;;;;;;;5120836;27;20043;-82
2023/10/14 01:20:41;;;;;;;6.05;0.43;;;;;;;;;;5137243;27;20043;-82
2023/10/14 01:23:17;;;;;;;7.60;0.60;;;;;;;;;;5155385;27;20133;-81
2023/10/14 01:25:52;;;;;;;3.83;0.30;;;;;;;;;;5119827;27;20577;-82
2023/10/14 01:28:23;;;;;;;5.78;0.43;;;;;;;;;;5119790;27;20130;-82
2023/10/14 01:31:11;;;;;;;5.50;0.32;;;;;;;;;;5137231;27;20046;-81
2023/10/14 01:33:37;;;;;;;9.15;0.55;;;;;;;;;;5137089;27;20500;-81
2023/10/14 01:36:04;;;;;;;9.25;0.57;;;;;;;;;;5120106;27;20061;-81
2023/10/14 01:38:33;;;;;;;4.57;0.50;;;;;;;;;;5136955;27;20446;-81
2023/10/14 01:41:04;;;;;;;5.25;0.43;;;;;;;;;;5154820;27;20487;-81
2023/10/14 01:43:30;;;;;;;6.53;0.52;;;;;;;;;;5136543;27;20104;-80
2023/10/14 01:48:25;;;;;;;8.43;0.60;;;;;;;;;;5119952;27;20076;-81
2023/10/14 01:50:55;;;;;;;9.00;0.70;;;;;;;;;;5120311;27;20042;-81
2023/10/14 01:53:23;;;;;;;8.82;0.60;;;;;;;;;;5136687;27;20222;-81
2023/10/14 01:55:52;;;;;;;8.80;0.60;;;;;;;;;;5155087;27;20046;-80
2023/10/14 01:58:22;;;;;;;10.10;0.50;;;;;;;;;;5135933;27;20550;-80
2023/10/14 02:00:53;;;;;;;8.20;0.50;;;;;;;;;;5136692;27;20047;-81
2023/10/14 02:03:22;;;;;;;7.32;0.40;;;;;;;;;;5119494;27;20043;-81
2023/10/14 02:05:51;;;;;;;8.68;0.57;;;;;;;;;;5119497;27;20038;-80
2023/10/14 02:08:21;;;;;;;8.23;0.73;;;;;;;;;;5136545;27;20054;-80
2023/10/14 02:10:49;;;;;;;15.40;0.70;;;;;;;;;;5119565;27;20102;-81
2023/10/14 02:13:16;;;;;;;9.90;0.93;;;;;;;;;;5137031;27;20134;-80
2023/10/14 02:15:49;;;;;;;6.28;0.50;;;;;;;;;;5154953;27;20082;-80
2023/10/14 02:18:20;;;;;;;8.00;0.77;;;;;;;;;;5136513;27;20059;-80
2023/10/14 02:21:05;;;;;;;7.60;0.85;;;;;;;;;;5119345;27;20505;-81
2023/10/14 02:23:44;;;;;;;8.25;0.50;;;;;;;;;;5105250;27;20046;-80
2023/10/14 02:26:16;;;;;;;7.30;0.73;;;;;;;;;;5124370;27;20051;-81
2023/10/14 02:28:48;;;;;;;5.60;0.50;;;;;;;;;;5122566;27;20050;-81
2023/10/14 02:31:18;;;;;;;7.75;0.80;;;;;;;;;;5140435;27;20486;-80
2023/10/14 02:33:48;;;;;;;9.95;0.50;;;;;;;;;;5140243;27;20061;-80
2023/10/14 02:36:17;;;;;;;8.20;0.68;;;;;;;;;;5140330;27;20435;-81
2023/10/14 02:38:53;;;;;;;8.80;0.60;;;;;;;;;;5140064;27;20043;-81
2023/10/14 02:41:26;;;;;;;10.63;0.98;;;;;;;;;;5140284;27;20475;-80
2023/10/14 02:44:00;;;;;;;10.35;0.93;;;;;;;;;;5139329;27;20497;-80
2023/10/14 02:46:27;;;;;;;10.20;1.13;;;;;;;;;;5140321;27;20086;-81
2023/10/14 02:48:54;;;;;;;9.93;0.68;;;;;;;;;;5158349;27;20054;-80
2023/10/14 02:51:35;;;;;;;11.35;1.02;;;;;;;;;;5140251;27;20046;-80
2023/10/14 02:54:13;;;;;;;7.70;0.63;;;;;;;;;;5125225;27;20055;-80
2023/10/14 02:59:19;;;;;;;8.38;0.80;;;;;;;;;;5140038;27;20055;-80
2023/10/14 03:04:38;;;;;;;;;;;;;;;;;;5140453;27;20050;-80
2023/10/14 03:07:04;;;;;;;9.73;0.80;;;;;;;;;;5122956;27;20018;-80
2023/10/14 03:09:34;;;;;;;9.60;0.73;;;;;;;;;;5139524;27;20095;-80
2023/10/14 03:12:00;;;;;;;10.40;0.57;;;;;;;;;;5121839;27;20128;-80
2023/10/14 03:14:27;;;;;;;7.90;0.77;;;;;;;;;;5139309;27;20039;-80
2023/10/14 03:16:53;;;;;;;12.30;0.85;;;;;;;;;;5122540;27;20446;-80
2023/10/14 03:19:19;;;;;;;9.65;0.70;;;;;;;;;;5139310;27;20133;-80
2023/10/14 03:22:00;;;;;;;9.73;0.70;;;;;;;;;;5122397;27;20078;-80
2023/10/14 03:24:29;;;;;;;9.68;0.77;;;;;;;;;;5124180;27;20082;-80
2023/10/14 03:27:04;;;;;;;8.18;0.75;;;;;;;;;;5157101;27;20490;-80
2023/10/14 03:29:31;;;;;;;;;;;;;;;;;;5123702;27;20042;-81
2023/10/14 03:31:57;;;;;;;9.52;0.80;;;;;;;;;;5139187;27;19941;-80
2023/10/14 03:34:30;;;;;;;8.32;1.00;;;;;;;;;;5122206;27;20054;-80
2023/10/14 03:37:00;;;;;;;7.72;0.82;;;;;;;;;;5138416;27;20486;-81
2023/10/14 03:39:41;;;;;;;12.23;1.02;;;;;;;;;;5139101;27;20573;-80
2023/10/14 03:42:32;;;;;;;13.25;0.95;;;;;;;;;;5157389;27;20436;-80
2023/10/14 03:44:58;;;;;;;7.90;0.70;;;;;;;;;;5138165;27;20063;-80
2023/10/14 03:47:34;;;;;;;9.50;0.73;;;;;;;;;;5139127;27;20042;-80
2023/10/14 03:50:00;;;;;;;12.00;0.57;;;;;;;;;;5139031;27;20057;-80
2023/10/14 03:52:26;;;;;;;11.93;1.00;;;;;;;;;;5156815;27;20047;-80
2023/10/14 03:54:52;;;;;;;6.22;0.77;;;;;;;;;;5138563;27;20133;-80
2023/10/14 03:57:32;;;;;;;11.50;0.90;;;;;;;;;;5104018;27;20138;-80
2023/10/14 04:00:09;;;;;;;10.23;0.80;;;;;;;;;;5123423;27;20051;-80
2023/10/14 04:02:39;;;;;;;9.77;0.80;;;;;;;;;;5123104;27;20069;-80
2023/10/14 04:05:12;;;;;;;10.43;0.95;;;;;;;;;;5122178;27;20050;-80
2023/10/14 04:07:41;;;;;;;15.02;1.10;;;;;;;;;;5121959;27;20137;-80
2023/10/14 04:10:09;;;;;;;13.48;0.68;;;;;;;;;;5121403;27;20038;-80
2023/10/14 04:15:15;;;;;;;13.45;0.95;;;;;;;;;;5125676;27;20049;-81
2023/10/14 04:17:46;;;;;;;11.80;0.60;;;;;;;;;;5141493;27;20130;-80
2023/10/14 04:22:39;;;;;;;5.25;0.93;;;;;;;;;;5158918;27;20092;-79
2023/10/14 04:30:44;;;;;;;12.50;1.35;;;;;;;;;;5158636;27;20486;-80
2023/10/14 04:33:19;;;;;;;10.00;0.77;;;;;;;;;;5158338;27;20038;-80
2023/10/14 04:36:08;;;;;;;13.65;1.13;;;;;;;;;;5177154;27;20046;-80
2023/10/14 04:38:43;;;;;;;11.90;0.80;;;;;;;;;;5158897;27;20050;-80
2023/10/14 04:41:13;;;;;;;10.20;1.00;;;;;;;;;;5125805;27;20046;-80
2023/10/14 04:46:32;;;;;;;8.32;0.77;;;;;;;;;;5158543;27;20441;-80
2023/10/14 04:49:08;;;;;;;8.48;1.10;;;;;;;;;;5157941;27;20194;-79
2023/10/14 04:51:45;;;;;;;9.15;1.02;;;;;;;;;;5125698;27;20046;-79
2023/10/14 04:54:12;;;;;;;9.30;0.63;;;;;;;;;;5141129;27;20082;-79
2023/10/14 04:56:45;;;;;;;7.47;0.50;;;;;;;;;;5158799;27;20129;-80
2023/10/14 04:59:12;;;;;;;11.65;0.75;;;;;;;;;;5157896;27;20038;-80
2023/10/14 05:01:41;;;;;;;7.65;1.00;;;;;;;;;;5158059;27;20508;-80
2023/10/14 05:04:08;;;;;;;10.80;0.50;;;;;;;;;;5157949;27;20508;-80
2023/10/14 05:06:43;;;;;;;11.43;0.82;;;;;;;;;;5140812;27;20179;-80
2023/10/14 05:09:25;;;;;;;7.70;0.73;;;;;;;;;;5141409;27;20082;-79
2023/10/14 05:11:52;;;;;;;7.43;0.60;;;;;;;;;;5140421;27;20065;-80
2023/10/14 05:14:25;;;;;;;10.85;0.63;;;;;;;;;;5176287;27;20082;-80
2023/10/14 05:16:55;;;;;;;9.02;0.60;;;;;;;;;;5150492;27;20147;-79
2023/10/14 05:19:41;;;;;;;12.68;0.60;;;;;;;;;;5120927;27;20183;-79
2023/10/14 05:22:18;;;;;;;12.30;0.60;;;;;;;;;;5123065;27;20050;-79
2023/10/14 05:24:48;;;;;;;10.52;0.77;;;;;;;;;;5136968;27;20049;-79
2023/10/14 05:27:19;;;;;;;10.50;1.00;;;;;;;;;;5136630;27;20129;-79
2023/10/14 05:29:50;;;;;;;9.43;0.50;;;;;;;;;;5137064;27;20050;-79
2023/10/14 05:32:18;;;;;;;12.10;0.60;;;;;;;;;;5155424;27;20061;-80
2023/10/14 05:34:45;;;;;;;13.18;0.88;;;;;;;;;;5136945;27;20046;-79
2023/10/14 05:37:12;;;;;;;10.68;0.85;;;;;;;;;;5137473;27;20042;-79
2023/10/14 05:39:38;;;;;;;12.30;0.70;;;;;;;;;;5119946;27;20050;-79
2023/10/14 05:42:13;;;;;;;10.65;0.70;;;;;;;;;;5136977;27;20071;-80
2023/10/14 05:44:54;;;;;;;10.52;1.13;;;;;;;;;;5119266;27;20054;-79
2023/10/14 05:47:20;;;;;;;11.07;0.68;;;;;;;;;;5119904;27;20054;-80
2023/10/14 05:49:47;;;;;;;9.80;0.80;;;;;;;;;;5119845;27;20517;-79
2023/10/14 05:52:13;;;;;;;7.45;0.70;;;;;;;;;;5119766;27;20078;-80
2023/10/14 05:54:41;;;;;;;7.85;0.80;;;;;;;;;;5155179;27;20039;-80
2023/10/14 05:57:11;;;;;;;9.63;0.57;;;;;;;;;;5136653;27;20082;-79
2023/10/14 05:59:38;;;;;;;10.02;0.80;;;;;;;;;;5137892;27;20126;-79
2023/10/14 06:02:08;;;;;;;10.20;0.60;;;;;;;;;;5141142;27;20043;-79
2023/10/14 06:04:39;;;;;;;12.10;1.00;;;;;;;;;;5140526;27;20046;-79
2023/10/14 06:07:09;;;;;;;6.90;0.55;;;;;;;;;;5141173;27;20106;-80
2023/10/14 06:09:37;;;;;;;7.93;0.60;;;;;;;;;;5158848;27;20043;-79
2023/10/14 06:12:12;;;;;;;7.03;0.55;;;;;;;;;;5140741;27;20043;-79
2023/10/14 06:14:39;;;;;;;14.80;0.90;;;;;;;;;;5123285;27;20081;-79
2023/10/14 06:17:05;;;;;;;12.80;1.17;;;;;;;;;;5140507;27;20051;-78
2023/10/14 06:19:34;;;;;;;10.27;1.23;;;;;;;;;;5140402;27;20226;-79
2023/10/14 06:22:00;;;;;;;11.35;0.93;;;;;;;;;;5124015;27;20414;-79
2023/10/14 06:24:26;;;;;;;10.63;1.13;;;;;;;;;;5140381;27;20390;-79
2023/10/14 06:26:58;;;;;;;14.73;1.40;;;;;;;;;;5140911;27;20047;-79
2023/10/14 06:29:26;;;;;;;14.10;0.90;;;;;;;;;;5140226;27;20046;-79
2023/10/14 06:31:52;;;;;;;13.15;1.10;;;;;;;;;;5123222;27;20042;-80
2023/10/14 06:34:20;;;;;;;13.05;0.95;;;;;;;;;;5140163;27;20107;-80
2023/10/14 06:36:47;;;;;;;15.57;1.50;;;;;;;;;;5140057;27;20064;-79
2023/10/14 06:39:14;;;;;;;15.68;1.60;;;;;;;;;;5140181;27;20049;-80
2023/10/14 06:41:43;;;;;;;12.75;1.27;;;;;;;;;;5158307;27;20439;-79
2023/10/14 06:44:15;;;;;;;11.27;1.50;;;;;;;;;;5139453;27;20065;-79
2023/10/14 06:46:44;;;;;;;12.77;1.25;;;;;;;;;;5140736;27;20058;-78
2023/10/14 06:49:16;;;;;;;10.68;1.02;;;;;;;;;;5140258;27;20500;-79
2023/10/14 06:51:42;;;;;;;17.05;1.23;;;;;;;;;;5158126;27;20050;-79
2023/10/14 06:54:14;;;;;;;10.32;1.10;;;;;;;;;;5122923;27;20053;-78
2023/10/14 06:56:44;;;;;;;19.45;1.17;;;;;;;;;;5122907;27;20096;-78
2023/10/14 06:59:13;;;;;;;13.75;1.23;;;;;;;;;;5139337;27;20046;-78
2023/10/14 07:01:39;;;;;;;9.95;0.85;;;;;;;;;;5139904;27;20043;-78
2023/10/14 07:04:06;;;;;;;9.93;1.25;;;;;;;;;;5139520;27;20039;-78
2023/10/14 07:06:32;;;;;;;12.10;1.02;;;;;;;;;;5139550;27;20122;-78
2023/10/14 07:09:00;;;;;;;13.90;1.42;;;;;;;;;;5157894;27;20042;-78
2023/10/14 07:11:27;;;;;;;11.77;1.20;;;;;;;;;;5139401;27;20082;-79
2023/10/14 07:13:53;;;;;;;13.63;1.25;;;;;;;;;;5122544;27;20051;-78
2023/10/14 07:16:19;;;;;;;12.88;1.38;;;;;;;;;;5157720;27;20082;-79
2023/10/14 07:18:45;;;;;;;13.30;1.23;;;;;;;;;;5139303;27;20123;-78
2023/10/14 07:21:13;;;;;;;12.15;1.63;;;;;;;;;;5122195;27;20073;-78
2023/10/14 07:23:39;;;;;;;13.45;1.17;;;;;;;;;;5121972;27;20126;-78
2023/10/14 07:26:09;;;;;;;13.60;1.63;;;;;;;;;;5139374;27;20047;-78
2023/10/14 07:28:36;;;;;;;10.60;1.08;;;;;;;;;;5138484;27;20123;-78
2023/10/14 07:31:02;;;;;;;17.25;1.48;;;;;;;;;;5139127;27;20074;-79
2023/10/14 07:33:29;;;;;;;10.05;1.52;;;;;;;;;;5139145;27;20053;-79
2023/10/14 07:35:58;;;;;;;8.30;1.20;;;;;;;;;;5138564;27;20558;-78
2023/10/14 07:38:24;;;;;;;11.52;1.45;;;;;;;;;;5139121;27;20049;-78
2023/10/14 07:40:51;;;;;;;11.55;1.08;;;;;;;;;;5139021;27;20042;-78
2023/10/14 07:43:19;;;;;;;16.08;2.10;;;;;;;;;;5117857;27;20392;-78
2023/10/14 07:45:48;;;;;;;15.95;1.13;;;;;;;;;;5118372;27;20146;-78
2023/10/14 07:48:17;;;;;;;13.43;1.25;;;;;;;;;;5118844;27;20497;-78
2023/10/14 07:50:44;;;;;;;15.40;1.50;;;;;;;;;;5135340;27;20497;-78
2023/10/14 07:53:15;;;;;;;15.30;1.63;;;;;;;;;;5136303;27;20114;-78
2023/10/14 07:55:47;;;;;;;17.85;1.77;;;;;;;;;;5135153;27;20099;-78
2023/10/14 07:58:13;;;;;;;14.65;1.75;;;;;;;;;;5135665;27;20047;-78
2023/10/14 08:00:40;;;;;;;15.73;1.40;;;;;;;;;;5135009;27;20054;-78
2023/10/14 08:03:14;;;;;;;16.05;1.27;;;;;;;;;;5134997;27;20043;-78
2023/10/14 08:05:41;;;;;;;18.65;1.63;;;;;;;;;;5135186;27;20043;-78
2023/10/14 08:08:09;;;;;;;12.68;1.50;;;;;;;;;;5134803;27;20096;-78
2023/10/14 08:10:36;;;;;;;14.68;1.40;;;;;;;;;;5134959;27;20047;-78
2023/10/14 08:13:04;;;;;;;12.38;1.20;;;;;;;;;;5134920;27;20130;-78
2023/10/14 08:15:30;;;;;;;17.92;1.52;;;;;;;;;;5134637;27;20046;-78
2023/10/14 08:18:00;;;;;;;13.43;1.63;;;;;;;;;;5118343;27;20051;-79
2023/10/14 08:20:31;;;;;;;15.38;1.58;;;;;;;;;;5117657;27;20043;-78
2023/10/14 08:22:57;;;;;;;13.93;1.40;;;;;;;;;;5135145;27;20089;-78
2023/10/14 08:25:25;;;;;;;14.27;1.73;;;;;;;;;;5135652;27;20054;-78
2023/10/14 08:27:55;;;;;;;13.02;1.80;;;;;;;;;;5116938;27;20057;-78
2023/10/14 08:30:24;;;;;;;14.07;1.58;;;;;;;;;;5134535;27;20047;-78
2023/10/14 08:32:50;;;;;;;12.98;1.45;;;;;;;;;;5134540;27;20069;-78
2023/10/14 08:35:17;;;;;;;16.67;2.00;;;;;;;;;;5134573;27;20043;-78
2023/10/14 08:37:47;;;;;;;10.70;1.42;;;;;;;;;;5117462;27;20053;-78
2023/10/14 08:40:16;;;;;;;20.70;2.63;;;;;;;;;;5134449;27;20089;-78
2023/10/14 08:42:45;;;;;;;11.77;1.80;;;;;;;;;;5135529;27;20047;-78
2023/10/14 08:45:12;;;;;;;16.40;1.42;;;;;;;;;;5156139;27;20061;-78
2023/10/14 08:47:40;;;;;;;14.57;1.52;;;;;;;;;;5137761;27;20042;-78
2023/10/14 08:50:09;;;;;;;12.32;1.48;;;;;;;;;;5156324;27;20046;-78
2023/10/14 08:52:37;;;;;;;9.30;1.38;;;;;;;;;;5120538;27;20053;-78
2023/10/14 08:55:06;;;;;;;14.38;1.73;;;;;;;;;;5137721;27;20120;-77
2023/10/14 08:57:34;;;;;;;16.65;2.10;;;;;;;;;;5144372;27;20057;-78
2023/10/14 09:00:00;;;;;;;16.38;1.83;;;;;;;;;;5153748;27;20057;-79
2023/10/14 09:02:26;;;;;;;9.55;1.55;;;;;;;;;;5154749;27;20486;-78
2023/10/14 09:04:52;;;;;;;10.13;1.20;;;;;;;;;;5161349;27;20038;-78
2023/10/14 09:07:22;;;;;;;18.42;1.83;;;;;;;;;;5174761;27;20038;-78
2023/10/14 09:09:53;;;;;;;8.43;1.00;;;;;;;;;;5156925;27;20405;-78
2023/10/14 09:12:19;;;;;;;7.57;1.48;;;;;;;;;;5175301;27;20506;-78
2023/10/14 09:14:45;;;;;;;8.23;0.95;;;;;;;;;;5157831;27;20129;-78
2023/10/14 09:17:12;;;;;;;5.30;0.60;;;;;;;;;;5141167;27;20103;-78
2023/10/14 09:19:45;;;;;;;8.65;0.70;;;;;;;;;;5140608;27;20042;-78
2023/10/14 09:22:25;;;;;;;8.98;0.50;;;;;;;;;;5157449;27;20461;-78
2023/10/14 09:24:52;;;;;;;7.07;0.88;;;;;;;;;;5157614;27;20049;-78
2023/10/14 09:27:19;;;;;;;6.78;0.50;;;;;;;;;;5157361;27;20057;-79
2023/10/14 09:29:45;;;;;;;4.57;0.50;;;;;;;;;;5176224;27;20089;-78
2023/10/14 09:32:12;;;;;;;3.60;0.55;;;;;;;;;;5157539;27;20042;-79
2023/10/14 09:34:41;;;;;;;9.98;0.98;;;;;;;;;;5158906;27;20485;-78
2023/10/14 09:37:11;;;;;;;6.97;0.85;;;;;;;;;;5180545;27;20504;-78
2023/10/14 09:39:41;;;;;;;9.07;0.90;;;;;;;;;;5144800;27;20490;-78
2023/10/14 09:42:11;;;;;;;8.77;0.80;;;;;;;;;;5162723;27;20054;-78
2023/10/14 09:44:40;;;;;;;6.95;0.88;;;;;;;;;;5180461;27;20106;-78
2023/10/14 09:47:09;;;;;;;10.35;1.00;;;;;;;;;;5161784;27;20095;-78
2023/10/14 09:49:37;;;;;;;6.85;0.65;;;;;;;;;;5161816;27;20042;-78
2023/10/14 09:52:04;;;;;;;7.53;0.55;;;;;;;;;;5180217;27;20137;-78
2023/10/14 09:54:32;;;;;;;9.82;0.80;;;;;;;;;;5180153;27;20081;-78
2023/10/14 09:57:00;;;;;;;13.02;1.00;;;;;;;;;;5161238;27;20621;-78
2023/10/14 09:59:28;;;;;;;9.18;1.08;;;;;;;;;;5161155;27;20054;-79
2023/10/14 10:01:54;;;;;;;7.18;0.60;;;;;;;;;;5180136;27;20121;-78
2023/10/14 10:04:24;;;;;;;10.65;1.10;;;;;;;;;;5161416;27;20042;-78
2023/10/14 10:06:53;;;;;;;11.32;1.00;;;;;;;;;;5161410;27;20516;-78
2023/10/14 10:09:19;;;;;;;9.88;1.05;;;;;;;;;;5161319;27;20042;-78
2023/10/14 10:11:48;;;;;;;9.45;0.80;;;;;;;;;;5161577;27;20139;-78
2023/10/14 10:14:18;;;;;;;10.20;1.10;;;;;;;;;;5161474;27;20046;-79
2023/10/14 10:16:47;;;;;;;6.68;0.70;;;;;;;;;;5161444;27;20053;-78
2023/10/14 10:19:15;;;;;;;6.40;0.95;;;;;;;;;;5161401;27;20517;-78
2023/10/14 10:22:01;;;;;;;10.88;1.00;;;;;;;;;;5179807;27;20090;-78
2023/10/14 10:24:40;;;;;;;6.72;0.60;;;;;;;;;;5161163;27;20122;-78
2023/10/14 10:27:08;;;;;;;1.58;0.20;;;;;;;;;;5179512;27;20534;-78
2023/10/14 10:29:42;;;;;;;1.48;0.10;;;;;;;;;;5143440;27;20078;-78
2023/10/14 10:32:09;;;;;;;2.83;0.10;;;;;;;;;;5161282;27;20439;-78
2023/10/14 10:34:55;;;;;;;4.10;0.20;;;;;;;;;;5179679;27;20054;-78
2023/10/14 10:37:21;;;;;;;2.17;0.35;;;;;;;;;;5143135;27;20046;-79
2023/10/14 10:39:50;;;;;;;6.97;0.47;;;;;;;;;;5178981;27;20489;-78
2023/10/14 10:42:17;;;;;;;1.80;0.20;;;;;;;;;;5160893;27;20494;-78
2023/10/14 10:44:43;;;;;;;3.45;0.15;;;;;;;;;;5179041;27;20054;-78
2023/10/14 10:47:14;;;;;;;5.38;0.60;;;;;;;;;;5160208;27;20046;-78
2023/10/14 10:49:49;;;;;;;6.00;0.35;;;;;;;;;;5143762;27;20497;-79
2023/10/14 10:52:16;;;;;;;3.50;0.50;;;;;;;;;;5143515;27;20129;-78
2023/10/14 10:54:43;;;;;;;6.47;0.40;;;;;;;;;;5126744;27;20171;-78
2023/10/14 10:57:11;;;;;;;4.38;0.38;;;;;;;;;;5160347;27;20053;-78
2023/10/14 10:59:37;;;;;;;5.15;0.57;;;;;;;;;;5160408;27;20053;-78
2023/10/14 11:02:18;;;;;;;7.78;0.63;;;;;;;;;;5160532;27;20050;-79
2023/10/14 11:04:48;;;;;;;6.65;0.50;;;;;;;;;;5160186;27;20038;-80
2023/10/14 11:07:14;;;;;;;7.20;0.45;;;;;;;;;;5142498;27;20042;-83
2023/10/14 11:09:41;;;;;;;5.18;0.52;;;;;;;;;;5178578;27;20038;-79
2023/10/14 11:12:11;;;;;;;3.88;0.30;;;;;;;;;;5160425;27;20038;-78
2023/10/14 11:14:38;;;;;;;5.88;0.70;;;;;;;;;;5178700;27;20038;-78
2023/10/14 11:17:04;;;;;;;7.50;0.40;;;;;;;;;;5160295;27;20056;-78
2023/10/14 11:19:31;;;;;;;6.20;0.60;;;;;;;;;;5143103;27;20038;-78
2023/10/14 11:21:58;;;;;;;5.35;0.43;;;;;;;;;;5143447;27;20086;-78
2023/10/14 11:24:25;;;;;;;5.75;0.30;;;;;;;;;;5159888;27;20072;-78
2023/10/14 11:26:53;;;;;;;2.47;0.22;;;;;;;;;;5142788;27;20057;-78
2023/10/14 11:29:23;;;;;;;3.00;0.22;;;;;;;;;;5159697;27;20084;-78
2023/10/14 11:31:53;;;;;;;4.38;0.40;;;;;;;;;;5159736;27;20482;-78
2023/10/14 11:34:20;;;;;;;6.85;0.40;;;;;;;;;;5160228;27;20065;-78
2023/10/14 11:36:48;;;;;;;2.33;0.20;;;;;;;;;;5160094;27;20050;-78
2023/10/14 11:39:18;;;;;;;4.63;0.40;;;;;;;;;;5178222;27;20098;-78
2023/10/14 11:41:45;;;;;;;7.10;0.75;;;;;;;;;;5159766;27;20386;-78
2023/10/14 11:44:17;;;;;;;4.53;0.50;;;;;;;;;;5159190;27;20054;-78
2023/10/14 11:46:43;;;;;;;7.40;0.30;;;;;;;;;;5159785;27;20042;-78
2023/10/14 11:49:13;;;;;;;5.85;0.45;;;;;;;;;;5159740;27;20042;-78
2023/10/14 11:51:47;;;;;;;4.53;0.30;;;;;;;;;;5159600;27;20470;-78
2023/10/14 11:54:16;;;;;;;2.00;0.20;;;;;;;;;;5159617;27;20495;-78
2023/10/14 11:56:42;;;;;;;4.95;0.60;;;;;;;;;;5158788;27;20450;-78
2023/10/14 11:59:09;;;;;;;4.20;0.60;;;;;;;;;;5158866;27;20046;-78
2023/10/14 12:01:35;;;;;;;2.60;0.20;;;;;;;;;;5159199;27;20038;-78
2023/10/14 12:04:05;;;;;;;9.77;0.88;;;;;;;;;;5159138;27;20049;-78
2023/10/14 12:06:34;;;;;;;4.68;0.47;;;;;;;;;;5159260;27;20042;-78
2023/10/14 12:09:05;;;;;;;3.60;0.40;;;;;;;;;;5125309;27;20050;-78
2023/10/14 12:11:41;;;;;;;5.88;0.40;;;;;;;;;;5159369;27;20046;-78
2023/10/14 12:14:07;;;;;;;6.07;0.40;;;;;;;;;;5141592;27;20124;-78
2023/10/14 12:16:34;;;;;;;7.28;0.30;;;;;;;;;;5142037;27;20078;-78
2023/10/14 12:19:00;;;;;;;7.32;0.38;;;;;;;;;;5159073;27;20042;-78
2023/10/14 12:21:26;;;;;;;6.60;0.52;;;;;;;;;;5177367;27;20047;-78
2023/10/14 12:23:54;;;;;;;6.55;0.40;;;;;;;;;;5141577;27;20522;-78
2023/10/14 12:26:22;;;;;;;6.13;0.98;;;;;;;;;;5141968;27;20076;-78
2023/10/14 12:28:49;;;;;;;7.13;1.05;;;;;;;;;;5158313;27;20050;-78
2023/10/14 12:31:16;;;;;;;8.30;0.57;;;;;;;;;;5158764;27;20046;-78
2023/10/14 12:33:43;;;;;;;5.07;0.40;;;;;;;;;;5158754;27;20053;-78
2023/10/14 12:36:10;;;;;;;3.38;0.38;;;;;;;;;;5141392;27;20469;-79
2023/10/14 12:38:37;;;;;;;14.57;0.20;;;;;;;;;;5158329;27;20050;-78
2023/10/14 12:41:06;;;;;;;11.50;0.30;;;;;;;;;;5141549;27;20094;-78
2023/10/14 12:43:39;;;;;;;5.45;0.30;;;;;;;;;;5158195;27;20058;-78
2023/10/14 12:46:12;;;;;;;;;;;;;;;;;;5142433;27;20415;-78
2023/10/14 12:48:45;;;;;;;6.15;0.40;;;;;;;;;;5141887;27;19919;-78
2023/10/14 12:51:20;;;;;;;6.40;0.30;;;;;;;;;;5158475;27;20057;-78
2023/10/14 12:53:46;;;;;;;4.28;0.30;;;;;;;;;;5158352;27;20054;-78
2023/10/14 12:56:20;;;;;;;8.20;1.10;;;;;;;;;;5158350;27;20042;-78
2023/10/14 12:58:48;;;;;;;6.40;0.20;;;;;;;;;;5157920;27;20099;-78
2023/10/14 13:01:17;;;;;;;4.80;0.30;;;;;;;;;;5158504;27;20057;-78
2023/10/14 13:03:46;;;;;;;5.75;0.28;;;;;;;;;;5158226;27;20524;-78
2023/10/14 13:06:14;;;;;;;3.10;0.30;;;;;;;;;;5140937;27;20050;-78
2023/10/14 13:08:40;;;;;;;5.15;0.30;;;;;;;;;;5141321;27;20098;-78
2023/10/14 13:11:07;;;;;;;4.38;0.30;;;;;;;;;;5140507;27;20133;-78
2023/10/14 13:13:34;;;;;;;2.83;0.20;;;;;;;;;;5157950;27;20049;-78
2023/10/14 13:16:00;;;;;;;4.28;0.20;;;;;;;;;;5141023;27;20056;-78
2023/10/14 13:18:26;;;;;;;5.57;0.22;;;;;;;;;;5157946;27;20084;-78
2023/10/14 13:20:58;;;;;;;5.70;0.35;;;;;;;;;;5140807;27;20054;-78
2023/10/14 13:23:25;;;;;;;6.40;0.40;;;;;;;;;;5140623;27;20042;-78
2023/10/14 13:25:51;;;;;;;4.47;0.47;;;;;;;;;;5157719;27;20090;-78
2023/10/14 13:28:17;;;;;;;7.63;0.80;;;;;;;;;;5157534;27;20093;-78
2023/10/14 13:30:46;;;;;;;10.35;1.10;;;;;;;;;;5157694;27;20129;-78
2023/10/14 13:33:13;;;;;;;7.85;0.73;;;;;;;;;;5157829;27;20039;-78
2023/10/14 13:35:42;;;;;;;9.02;1.05;;;;;;;;;;5176182;27;20093;-78
2023/10/14 13:38:10;;;;;;;9.35;0.90;;;;;;;;;;5157665;27;20042;-78
2023/10/14 13:40:40;;;;;;;11.00;1.13;;;;;;;;;;5157820;27;20204;-78
2023/10/14 13:43:06;;;;;;;10.35;0.85;;;;;;;;;;5140200;27;20072;-78
2023/10/14 13:45:33;;;;;;;8.55;0.80;;;;;;;;;;5140414;27;20492;-78
2023/10/14 13:48:06;;;;;;;11.73;1.35;;;;;;;;;;5140409;27;20454;-78
2023/10/14 13:50:32;;;;;;;7.38;1.13;;;;;;;;;;5157639;27;20050;-78
2023/10/14 13:52:58;;;;;;;9.70;0.93;;;;;;;;;;5139958;27;20038;-78
2023/10/14 13:55:24;;;;;;;11.57;0.80;;;;;;;;;;5176332;27;20124;-78
2023/10/14 13:57:53;;;;;;;8.38;1.10;;;;;;;;;;5175568;27;20054;-78
2023/10/14 14:00:36;;;;;;;9.90;0.70;;;;;;;;;;5157609;27;20151;-78
2023/10/14 14:03:06;;;;;;;8.30;0.77;;;;;;;;;;5157490;27;20057;-78
2023/10/14 14:05:33;;;;;;;7.05;0.70;;;;;;;;;;5176175;27;20463;-78
2023/10/14 14:07:59;;;;;;;10.32;0.73;;;;;;;;;;5123251;27;20042;-78
2023/10/14 14:10:25;;;;;;;6.20;0.35;;;;;;;;;;5157411;27;20482;-78
2023/10/14 14:12:53;;;;;;;7.55;0.43;;;;;;;;;;5140797;27;20050;-78
2023/10/14 14:15:23;;;;;;;3.67;0.32;;;;;;;;;;5140166;27;20098;-78
2023/10/14 14:17:49;;;;;;;6.97;0.40;;;;;;;;;;5176177;27;20053;-77
2023/10/14 14:20:16;;;;;;;5.03;0.40;;;;;;;;;;5157505;27;20093;-78
2023/10/14 14:22:44;;;;;;;4.82;0.60;;;;;;;;;;5161047;27;20095;-78
2023/10/14 14:25:12;;;;;;;9.32;0.50;;;;;;;;;;5143862;27;20507;-78
2023/10/14 14:27:39;;;;;;;8.43;0.50;;;;;;;;;;5161008;27;20397;-78
2023/10/14 14:30:07;;;;;;;4.88;0.63;;;;;;;;;;5161466;27;20063;-78
2023/10/14 14:32:38;;;;;;;8.07;0.88;;;;;;;;;;5179474;27;20053;-77
2023/10/14 14:35:11;;;;;;;3.95;0.50;;;;;;;;;;5161709;27;20084;-78
2023/10/14 14:37:38;;;;;;;4.38;0.43;;;;;;;;;;5160895;27;20042;-78
2023/10/14 14:40:16;;;;;;;6.80;0.57;;;;;;;;;;5160952;27;20087;-78
2023/10/14 14:42:43;;;;;;;6.15;0.30;;;;;;;;;;5160895;27;20054;-78
2023/10/14 14:45:10;;;;;;;6.47;0.70;;;;;;;;;;5158419;27;20520;-78
2023/10/14 14:47:39;;;;;;;5.68;0.52;;;;;;;;;;5160221;27;20085;-78
2023/10/14 14:50:07;;;;;;;5.05;0.55;;;;;;;;;;5143258;27;20053;-78
2023/10/14 14:52:34;;;;;;;9.93;0.80;;;;;;;;;;5143345;27;20049;-78
2023/10/14 14:55:01;;;;;;;8.20;0.60;;;;;;;;;;5143557;27;20061;-78
2023/10/14 14:57:27;;;;;;;5.03;0.50;;;;;;;;;;5160707;27;20069;-79
2023/10/14 14:59:55;;;;;;;5.40;0.30;;;;;;;;;;5125753;27;20049;-80
2023/10/14 15:02:22;;;;;;;7.22;0.60;;;;;;;;;;5160671;27;20145;-78
2023/10/14 15:04:49;;;;;;;5.57;0.30;;;;;;;;;;5160123;27;20042;-78
2023/10/14 15:07:15;;;;;;;4.55;0.52;;;;;;;;;;5143160;27;20102;-78
2023/10/14 15:09:44;;;;;;;6.47;0.70;;;;;;;;;;5160566;27;20382;-78
2023/10/14 15:12:11;;;;;;;4.85;0.38;;;;;;;;;;5160344;27;20091;-78